Terminal Aerodrome Forecast
Issued by NWS Tallahassee, FL

Home | Current Version | Previous Version | Text Only | Print | Product List | Glossary On
Versions: 1 2 3 4 5 6 7 8 9 10 11 12 13 14 15 16 17
943
FTUS42 KTAE 191009 AAB
TAFTLH
TAF AMD
KTLH 191009Z 1910/2006 00000KT 3SM FU SKC
      TEMPO 1910/1912 2SM FU SKC
     FM191300 33004KT P6SM SCT250=

USA.gov is the U.S. government's official web portal to all federal, state and local government web resources and services.